OPA Logo
 

ASOS: KRDM
At:2017.10.19 1556 UTC
Wind:180° @ 11KT
Viz: 10 mile(s)
Sky: overcast
Temp: 55.9 F (13.3 C)
DewP: 18.0 F (-7.8 C)
RH: 22%
Baro: 29.7 in.
ob: KRDM 191556Z 18011KT 10SM OVC080 13/M08 A2970 RMK AO2 SLP046 T01331078
Apache-SSL Logo

Valid HTML 4.01!

Local FAA Notices



15 May 2002 - FAA APPROVES 4 new antennas near St. Charles Hospital


2 May 2002, FAA Northwest Mountain Region Letter to Airmen 02-01

VFR Practice Approaches: Page 1, Page 2, Page 3, Page 4.


11 Apr 2002 - FAA Public Notice, 4 new antennas near St. Charles Hospital



Web page by: gem@rellim.com